Four Mile, Illinois
Current Conditions -  °F | °C
As of 5:15 PM on Wednesday 26 Nov 2014 (Local Time) from KFWC Reporting Station
Moderate Snow Moderate Snow  
Wind Chill: 33°   Ceiling: 700
Heat Index: 33°   Visibility: 1mi
Dew Point: 32°   Wind: 0mph
Humidity: 97%   Direction: NA
Pressure: 30.04"   Gusts: NA
Location:  38.3069°N, 88.55°W
Report Text: KFWC 262315Z AUTO 00000KT 1SM SN OVC007 00/00 A3004 RMK AO1 T00040000
Loading
Personal Weather Stations






























Interactive Weather Map New forecast layout! Learn more

10-Day Weather Forecast

Advertisements
Track Severe Weather on mobile